createdAt,value
2019-04-30T00:00:13.162Z,43.33
2019-04-30T00:02:52.115Z,43.67
2019-04-30T00:05:19.902Z,43.37
2019-04-30T00:07:50.894Z,44.15
2019-04-30T00:10:17.262Z,43.65
2019-04-30T00:12:45.339Z,42.90
2019-04-30T00:15:16.198Z,43.79
2019-04-30T00:17:42.596Z,44.16
2019-04-30T00:20:10.375Z,43.73
2019-04-30T00:22:45.463Z,43.18
2019-04-30T00:25:07.869Z,43.63
2019-04-30T00:27:35.724Z,42.86
2019-04-30T00:30:08.809Z,42.69
2019-04-30T00:32:37.211Z,42.62
2019-04-30T00:35:03.991Z,42.85
2019-04-30T00:37:32.041Z,43.40
2019-04-30T00:39:59.801Z,43.25
2019-04-30T00:42:28.680Z,42.95
2019-04-30T00:44:59.685Z,42.77
2019-04-30T00:47:26.319Z,42.45
2019-04-30T00:49:57.530Z,42.05
2019-04-30T00:52:25.197Z,42.43
2019-04-30T00:54:55.232Z,42.40
2019-04-30T00:57:22.761Z,42.70
2019-04-30T00:59:50.530Z,43.00
2019-04-30T01:02:42.880Z,42.50
2019-04-30T01:05:12.862Z,42.68
2019-04-30T01:07:47.972Z,42.70
2019-04-30T01:10:12.034Z,42.70
2019-04-30T01:12:44.962Z,42.70
2019-04-30T01:15:13.078Z,43.02
2019-04-30T01:17:40.703Z,44.28
2019-04-30T01:20:09.404Z,43.44
2019-04-30T01:22:38.870Z,43.12
2019-04-30T01:25:12.166Z,42.99
2019-04-30T01:27:45.778Z,43.58
2019-04-30T01:30:13.353Z,43.53
2019-04-30T01:32:39.478Z,43.09
2019-04-30T01:35:08.872Z,43.60
2019-04-30T01:37:38.578Z,42.73
2019-04-30T01:40:10.631Z,42.02
2019-04-30T01:42:36.009Z,42.09
2019-04-30T01:45:03.785Z,42.96
2019-04-30T01:47:31.543Z,42.59
2019-04-30T01:50:01.018Z,42.72
2019-04-30T01:52:49.354Z,43.81
2019-04-30T01:55:19.678Z,43.81
2019-04-30T01:57:56.454Z,44.03
2019-04-30T02:00:30.300Z,43.92
2019-04-30T02:02:59.238Z,43.04
2019-04-30T02:05:28.715Z,42.53
2019-04-30T02:07:58.404Z,42.76
2019-04-30T02:10:28.403Z,42.65
2019-04-30T02:12:56.049Z,42.59
2019-04-30T02:15:23.799Z,42.57
2019-04-30T02:17:51.585Z,43.57
2019-04-30T02:20:19.511Z,43.14
2019-04-30T02:22:48.614Z,42.72
2019-04-30T02:25:16.583Z,44.85
2019-04-30T02:27:44.512Z,42.83
2019-04-30T02:30:12.275Z,43.38
2019-04-30T02:32:40.094Z,43.77
2019-04-30T02:35:30.018Z,43.12
2019-04-30T02:38:16.502Z,43.27
2019-04-30T02:40:44.446Z,42.96
2019-04-30T02:43:12.239Z,43.65
2019-04-30T02:45:40.237Z,44.12
2019-04-30T02:48:11.388Z,45.04
2019-04-30T02:50:39.293Z,43.60
2019-04-30T02:53:09.778Z,43.63
2019-04-30T02:55:42.528Z,44.06
2019-04-30T02:58:10.315Z,43.14
2019-04-30T03:00:39.423Z,43.83
2019-04-30T03:03:10.080Z,43.77
2019-04-30T03:05:39.113Z,44.73
2019-04-30T03:08:06.451Z,44.30
2019-04-30T03:10:34.206Z,43.50
2019-04-30T03:13:01.958Z,44.48
2019-04-30T03:15:30.074Z,43.34
2019-04-30T03:18:09.904Z,43.09
2019-04-30T03:20:49.707Z,43.08
2019-04-30T03:23:19.523Z,43.06
2019-04-30T03:25:49.994Z,43.91
2019-04-30T03:28:19.942Z,44.58
2019-04-30T03:30:52.028Z,44.03
2019-04-30T03:33:16.038Z,44.20
2019-04-30T03:35:48.280Z,43.67
2019-04-30T03:38:13.533Z,43.82
2019-04-30T03:40:41.386Z,43.64
2019-04-30T03:43:11.315Z,44.35
2019-04-30T03:45:40.242Z,43.76
2019-04-30T03:48:10.161Z,44.39
2019-04-30T03:50:50.304Z,44.53
2019-04-30T03:53:10.226Z,46.15
2019-04-30T03:55:36.925Z,44.13
2019-04-30T03:58:04.679Z,44.41
2019-04-30T04:00:46.555Z,44.62
2019-04-30T04:03:13.265Z,43.91
2019-04-30T04:05:45.857Z,45.23
2019-04-30T04:08:39.560Z,43.61
2019-04-30T04:11:15.154Z,44.99
2019-04-30T04:13:42.975Z,44.97
2019-04-30T04:16:10.749Z,44.25
2019-04-30T04:18:40.238Z,45.71
2019-04-30T04:21:15.991Z,44.68
2019-04-30T04:23:39.940Z,44.02
2019-04-30T04:26:09.245Z,44.25
2019-04-30T04:28:36.622Z,44.38
2019-04-30T04:31:04.500Z,46.26
2019-04-30T04:33:32.244Z,44.86
2019-04-30T04:36:00.001Z,45.65
2019-04-30T04:38:30.197Z,45.44
2019-04-30T04:40:59.928Z,45.12
2019-04-30T04:43:26.935Z,47.01
2019-04-30T04:45:54.702Z,45.29
2019-04-30T04:48:23.130Z,46.72
2019-04-30T04:50:51.345Z,45.60
2019-04-30T04:53:19.612Z,47.30
2019-04-30T04:55:49.969Z,46.71
2019-04-30T04:58:21.176Z,47.83
2019-04-30T05:00:49.277Z,47.47
2019-04-30T05:03:29.884Z,47.40
2019-04-30T05:06:01.803Z,47.71
2019-04-30T05:08:28.469Z,46.69
2019-04-30T05:10:56.300Z,47.91
2019-04-30T05:13:24.218Z,50.49
2019-04-30T05:15:52.038Z,45.89
2019-04-30T05:18:22.511Z,48.66
2019-04-30T05:20:49.347Z,47.48
2019-04-30T05:23:17.230Z,48.84
2019-04-30T05:25:45.014Z,47.99
2019-04-30T05:28:13.059Z,49.02
2019-04-30T05:30:40.789Z,47.79
2019-04-30T05:33:08.946Z,48.42
2019-04-30T05:35:38.885Z,47.67
2019-04-30T05:38:09.325Z,47.25
2019-04-30T05:40:39.900Z,50.78
2019-04-30T05:43:08.728Z,47.98
2019-04-30T05:45:44.194Z,48.22
2019-04-30T05:48:12.020Z,48.28
2019-04-30T05:50:40.041Z,47.68
2019-04-30T05:53:08.992Z,46.93
2019-04-30T05:55:36.958Z,46.87
2019-04-30T05:58:04.836Z,47.35
2019-04-30T06:00:32.772Z,48.36
2019-04-30T06:03:00.755Z,47.62
2019-04-30T06:05:28.643Z,47.09
2019-04-30T06:07:56.469Z,47.83
2019-04-30T06:10:36.852Z,49.10
2019-04-30T06:13:11.642Z,46.85
2019-04-30T06:16:04.312Z,46.36
2019-04-30T06:18:32.085Z,45.27
2019-04-30T06:20:59.958Z,46.24
2019-04-30T06:23:29.322Z,47.02
2019-04-30T06:26:06.838Z,47.07
2019-04-30T06:28:29.200Z,47.95
2019-04-30T06:30:59.132Z,49.29
2019-04-30T06:33:28.972Z,47.99
2019-04-30T06:35:56.537Z,47.11
2019-04-30T06:38:24.320Z,46.31
2019-04-30T06:40:52.104Z,47.32
2019-04-30T06:43:20.002Z,48.16
2019-04-30T06:45:48.874Z,46.84
2019-04-30T06:48:19.751Z,48.42
2019-04-30T06:50:49.102Z,45.49
2019-04-30T06:53:16.838Z,47.07
2019-04-30T06:55:44.640Z,46.25
2019-04-30T06:58:15.471Z,46.32
2019-04-30T07:00:42.030Z,47.48
2019-04-30T07:03:10.116Z,46.13
2019-04-30T07:05:38.925Z,46.28
2019-04-30T07:08:36.086Z,48.02
2019-04-30T07:11:12.186Z,48.15
2019-04-30T07:13:42.172Z,49.35
2019-04-30T07:16:10.993Z,48.32
2019-04-30T07:18:38.897Z,48.27
2019-04-30T07:21:08.608Z,46.30
2019-04-30T07:23:36.147Z,48.70
2019-04-30T07:26:05.415Z,47.91
2019-04-30T07:28:46.569Z,47.86
2019-04-30T07:31:11.649Z,48.09
2019-04-30T07:33:32.256Z,45.84
2019-04-30T07:36:01.748Z,47.19
2019-04-30T07:38:29.827Z,47.16
2019-04-30T07:40:59.143Z,46.88
2019-04-30T07:43:28.846Z,46.11
2019-04-30T07:45:59.687Z,46.00
2019-04-30T07:48:26.679Z,46.64
2019-04-30T07:50:54.606Z,47.11
2019-04-30T07:53:22.387Z,46.35
2019-04-30T07:55:52.344Z,45.79
2019-04-30T07:58:20.641Z,46.35
2019-04-30T08:00:56.047Z,46.96
2019-04-30T08:03:31.432Z,45.59
2019-04-30T08:06:01.768Z,46.44
2019-04-30T08:08:30.472Z,46.62
2019-04-30T08:10:59.191Z,47.07
2019-04-30T08:13:31.959Z,47.08
2019-04-30T08:15:59.676Z,46.21
2019-04-30T08:18:29.445Z,45.95
2019-04-30T08:20:59.035Z,46.66
2019-04-30T08:23:34.978Z,46.17
2019-04-30T08:26:01.709Z,45.70
2019-04-30T08:28:30.450Z,45.55
2019-04-30T08:30:58.952Z,46.57
2019-04-30T08:33:29.074Z,46.27
2019-04-30T08:35:56.508Z,46.38
2019-04-30T08:38:24.288Z,46.47
2019-04-30T08:40:56.116Z,47.65
2019-04-30T08:43:21.710Z,47.86
2019-04-30T08:45:49.572Z,47.62
2019-04-30T08:48:18.988Z,46.19
2019-04-30T08:50:49.146Z,46.80
2019-04-30T08:53:26.616Z,46.83
2019-04-30T08:55:46.002Z,45.64
2019-04-30T08:58:15.199Z,46.00
2019-04-30T09:00:43.487Z,48.21
2019-04-30T09:03:11.422Z,48.54
2019-04-30T09:06:04.846Z,46.77
2019-04-30T09:08:32.958Z,47.26
2019-04-30T09:11:00.756Z,47.35
2019-04-30T09:13:28.745Z,47.55
2019-04-30T09:15:56.682Z,46.22
2019-04-30T09:18:24.527Z,46.95
2019-04-30T09:20:52.281Z,47.98
2019-04-30T09:23:20.073Z,48.23
2019-04-30T09:26:23.698Z,47.46
2019-04-30T09:28:51.482Z,47.75
2019-04-30T09:31:19.752Z,47.92
2019-04-30T09:33:49.270Z,46.59
2019-04-30T09:36:20.533Z,47.38
2019-04-30T09:38:48.494Z,47.47
2019-04-30T09:41:16.196Z,46.53
2019-04-30T09:43:54.579Z,47.65
2019-04-30T09:46:26.729Z,47.48
2019-04-30T09:48:51.885Z,47.43
2019-04-30T09:51:21.242Z,46.51
2019-04-30T09:54:04.362Z,46.34
2019-04-30T09:56:34.306Z,47.44
2019-04-30T09:59:03.331Z,47.50
2019-04-30T10:01:38.735Z,46.57
2019-04-30T10:04:19.955Z,46.79
2019-04-30T10:06:49.888Z,47.20
2019-04-30T10:09:17.114Z,47.91
2019-04-30T10:12:09.675Z,47.19
2019-04-30T10:14:40.779Z,46.76
2019-04-30T10:20:19.078Z,47.86
2019-04-30T10:22:46.863Z,47.25
2019-04-30T10:25:14.634Z,47.48
2019-04-30T10:27:42.504Z,48.31
2019-04-30T10:30:10.497Z,48.22
2019-04-30T10:32:38.413Z,48.49
2019-04-30T10:35:06.327Z,47.86
2019-04-30T10:37:34.078Z,48.38
2019-04-30T10:40:01.916Z,47.38
2019-04-30T10:42:31.070Z,47.88
2019-04-30T10:45:02.939Z,47.68
2019-04-30T10:47:32.663Z,47.76
2019-04-30T10:50:17.748Z,47.98
2019-04-30T10:52:45.737Z,47.64
2019-04-30T10:55:13.765Z,48.29
2019-04-30T10:57:41.559Z,47.61
2019-04-30T11:00:10.419Z,48.41
2019-04-30T11:02:38.714Z,47.96
2019-04-30T11:05:06.717Z,46.77
2019-04-30T11:07:34.473Z,47.50
2019-04-30T11:10:03.966Z,47.74
2019-04-30T11:12:33.125Z,48.11
2019-04-30T11:15:02.421Z,47.80
2019-04-30T11:17:33.247Z,47.97
2019-04-30T11:20:01.551Z,47.13
2019-04-30T11:22:33.193Z,48.18
2019-04-30T11:25:02.785Z,48.20
2019-04-30T11:27:31.518Z,48.78
2019-04-30T11:30:03.525Z,48.33
2019-04-30T11:32:29.390Z,47.62
2019-04-30T11:34:57.423Z,47.91
2019-04-30T11:37:25.185Z,47.44
2019-04-30T11:39:52.957Z,48.16
2019-04-30T11:42:20.735Z,47.09
2019-04-30T11:44:54.147Z,47.94
2019-04-30T11:47:25.992Z,47.63
2019-04-30T11:49:54.000Z,47.71
2019-04-30T11:52:21.867Z,47.80
2019-04-30T11:54:54.191Z,47.55
2019-04-30T11:57:19.238Z,47.20
2019-04-30T11:59:46.998Z,48.35
2019-04-30T12:02:22.561Z,47.61
2019-04-30T12:04:50.343Z,47.62
2019-04-30T12:07:33.845Z,47.72
2019-04-30T12:10:14.556Z,48.30
2019-04-30T12:12:42.306Z,47.12
2019-04-30T12:15:10.086Z,46.66
2019-04-30T12:17:38.013Z,46.23
2019-04-30T12:20:05.825Z,46.36
2019-04-30T12:22:33.592Z,46.68
2019-04-30T12:25:04.909Z,45.19
2019-04-30T12:27:30.936Z,45.26
2019-04-30T12:29:59.469Z,44.80
2019-04-30T12:32:29.689Z,46.76
2019-04-30T12:34:56.915Z,47.55
2019-04-30T12:37:24.737Z,46.57
2019-04-30T12:40:05.545Z,46.78
2019-04-30T12:42:28.700Z,45.91
2019-04-30T12:44:56.699Z,47.16
2019-04-30T12:47:25.595Z,47.09
2019-04-30T12:50:00.865Z,47.89
2019-04-30T12:52:33.301Z,48.12
2019-04-30T12:55:15.666Z,47.90
2019-04-30T12:57:42.462Z,48.75
2019-04-30T13:00:10.423Z,48.32
2019-04-30T13:02:38.177Z,46.61
2019-04-30T13:05:20.707Z,48.06
2019-04-30T13:07:51.027Z,48.43
2019-04-30T13:10:19.663Z,48.10
2019-04-30T13:12:48.253Z,49.74
2019-04-30T13:15:16.470Z,51.67
2019-04-30T13:17:44.353Z,50.31
2019-04-30T13:20:18.561Z,48.05
2019-04-30T13:22:44.095Z,48.55
2019-04-30T13:25:11.113Z,48.46
2019-04-30T13:27:42.249Z,49.66
2019-04-30T13:30:29.825Z,47.54
2019-04-30T13:33:05.141Z,49.30
2019-04-30T13:35:33.045Z,49.05
2019-04-30T13:38:09.152Z,49.70
2019-04-30T13:40:49.702Z,48.05
2019-04-30T13:43:18.256Z,48.09
2019-04-30T13:45:46.196Z,48.99
2019-04-30T13:48:26.109Z,49.55
2019-04-30T13:51:04.474Z,48.12
2019-04-30T13:53:32.427Z,46.15
2019-04-30T13:56:00.824Z,46.36
2019-04-30T13:58:28.806Z,48.39
2019-04-30T14:00:56.724Z,48.21
2019-04-30T14:03:33.941Z,47.85
2019-04-30T14:06:01.882Z,49.17
2019-04-30T14:08:34.049Z,47.55
2019-04-30T14:11:02.253Z,47.84
2019-04-30T14:13:35.010Z,48.63
2019-04-30T14:16:03.074Z,49.10
2019-04-30T14:18:34.053Z,48.89
2019-04-30T14:21:01.058Z,51.52
2019-04-30T14:23:28.885Z,48.78
2019-04-30T14:25:57.048Z,50.22
2019-04-30T14:28:25.514Z,49.72
2019-04-30T14:30:53.419Z,50.12
2019-04-30T14:33:26.272Z,47.61
2019-04-30T14:35:50.721Z,48.13
2019-04-30T14:38:19.114Z,47.40
2019-04-30T14:40:47.523Z,49.81
2019-04-30T14:43:44.857Z,48.76
2019-04-30T14:46:32.577Z,48.62
2019-04-30T14:49:29.839Z,49.18
2019-04-30T14:51:59.534Z,48.18
2019-04-30T14:54:37.057Z,48.37
2019-04-30T14:57:26.661Z,48.91
2019-04-30T15:00:19.174Z,47.30
2019-04-30T15:02:51.242Z,47.44
2019-04-30T15:05:19.601Z,47.29
2019-04-30T15:07:47.464Z,48.70
2019-04-30T15:10:15.226Z,46.49
2019-04-30T15:12:42.976Z,47.27
2019-04-30T15:15:10.724Z,48.10
2019-04-30T15:17:39.180Z,46.70
2019-04-30T15:20:08.826Z,46.64
2019-04-30T15:22:38.990Z,46.87
2019-04-30T15:25:06.995Z,46.73
2019-04-30T15:27:34.724Z,48.86
2019-04-30T15:30:03.293Z,49.00
2019-04-30T15:32:31.134Z,48.97
2019-04-30T15:35:05.428Z,46.15
2019-04-30T15:37:48.671Z,45.85
2019-04-30T15:40:16.702Z,45.22
2019-04-30T15:42:46.429Z,47.82
2019-04-30T15:45:16.176Z,47.08
2019-04-30T15:47:43.996Z,47.16
2019-04-30T15:50:11.800Z,46.15
2019-04-30T15:52:39.633Z,46.63
2019-04-30T15:55:09.052Z,47.12
2019-04-30T15:57:54.509Z,45.17
2019-04-30T16:00:22.459Z,45.00
2019-04-30T16:02:57.464Z,44.94
2019-04-30T16:05:32.444Z,44.59
2019-04-30T16:08:16.038Z,46.32
2019-04-30T16:11:08.226Z,46.87
2019-04-30T16:14:18.586Z,45.41
2019-04-30T16:16:53.769Z,45.11
2019-04-30T16:19:28.699Z,44.54
2019-04-30T16:22:03.244Z,45.29
2019-04-30T16:24:38.756Z,44.11
2019-04-30T16:27:06.739Z,44.93
2019-04-30T16:29:34.587Z,45.74
2019-04-30T16:32:02.385Z,46.84
2019-04-30T16:34:30.554Z,45.31
2019-04-30T16:36:59.003Z,45.41
2019-04-30T16:39:28.719Z,45.11
2019-04-30T16:41:56.460Z,44.06
2019-04-30T16:44:24.266Z,44.39
2019-04-30T16:46:59.656Z,44.80
2019-04-30T16:50:09.639Z,44.33
2019-04-30T16:52:39.681Z,44.40
2019-04-30T16:55:59.512Z,45.45
2019-04-30T16:58:29.081Z,44.50
2019-04-30T17:01:08.902Z,44.95
2019-04-30T17:03:50.500Z,44.46
2019-04-30T17:06:19.754Z,44.85
2019-04-30T17:08:54.187Z,45.08
2019-04-30T17:11:39.806Z,44.30
2019-04-30T17:14:10.543Z,44.85
2019-04-30T17:16:39.138Z,44.00
2019-04-30T17:19:08.987Z,44.02
2019-04-30T17:21:44.027Z,44.44
2019-04-30T17:24:14.033Z,44.97
2019-04-30T17:29:09.594Z,44.07
2019-04-30T17:31:37.745Z,43.67
2019-04-30T17:34:05.626Z,43.27
2019-04-30T17:36:33.438Z,43.30
2019-04-30T17:39:01.263Z,43.77
2019-04-30T17:41:29.915Z,43.85
2019-04-30T17:43:58.975Z,43.55
2019-04-30T17:46:28.518Z,43.47
2019-04-30T17:48:56.415Z,43.51
2019-04-30T17:51:24.208Z,43.69
2019-04-30T17:54:13.159Z,43.73
2019-04-30T17:56:41.027Z,43.50
2019-04-30T17:59:08.901Z,43.13
2019-04-30T18:01:39.938Z,43.52
2019-04-30T18:04:06.339Z,43.29
2019-04-30T18:06:34.082Z,43.40
2019-04-30T18:09:01.941Z,43.46
2019-04-30T18:11:30.118Z,43.36
2019-04-30T18:13:58.995Z,43.29
2019-04-30T18:16:28.679Z,43.19
2019-04-30T18:21:45.831Z,43.36
2019-04-30T18:24:31.352Z,43.40
2019-04-30T18:27:03.322Z,43.48
2019-04-30T18:29:31.119Z,43.04
2019-04-30T18:31:59.891Z,43.43
2019-04-30T18:34:29.213Z,43.28
2019-04-30T18:36:59.216Z,43.62
2019-04-30T18:39:31.713Z,43.32
2019-04-30T18:42:02.687Z,43.22
2019-04-30T18:44:30.467Z,43.53
2019-04-30T18:46:59.062Z,43.36
2019-04-30T18:49:28.622Z,44.16
2019-04-30T18:51:59.044Z,43.80
2019-04-30T18:54:28.918Z,43.73
2019-04-30T18:56:56.452Z,43.60
2019-04-30T18:59:24.230Z,43.65
2019-04-30T19:01:52.262Z,43.53
2019-04-30T19:04:20.096Z,43.19
2019-04-30T19:06:47.951Z,43.67
2019-04-30T19:09:35.121Z,43.70
2019-04-30T19:12:21.011Z,44.08
2019-04-30T19:15:10.695Z,44.12
2019-04-30T19:17:56.278Z,44.29
2019-04-30T19:20:30.957Z,44.45
2019-04-30T19:22:58.763Z,43.42
2019-04-30T19:25:28.861Z,43.44
2019-04-30T19:28:09.059Z,43.93
2019-04-30T19:30:26.403Z,44.22
2019-04-30T19:32:54.235Z,43.90
2019-04-30T19:35:22.225Z,43.40
2019-04-30T19:37:59.266Z,43.86
2019-04-30T19:40:28.634Z,44.63
2019-04-30T19:43:24.001Z,44.94
2019-04-30T19:45:52.327Z,44.73
2019-04-30T19:48:20.110Z,44.46
2019-04-30T19:50:48.853Z,43.88
2019-04-30T19:53:19.934Z,44.29
2019-04-30T19:55:46.174Z,44.04
2019-04-30T19:58:26.202Z,44.12
2019-04-30T20:00:44.344Z,43.70
2019-04-30T20:03:12.139Z,44.53
2019-04-30T20:05:39.931Z,44.48
2019-04-30T20:08:20.246Z,44.23
2019-04-30T20:10:49.602Z,44.10
2019-04-30T20:13:30.574Z,46.77
2019-04-30T20:15:49.274Z,43.76
2019-04-30T20:18:16.458Z,45.46
2019-04-30T20:20:47.177Z,43.40
2019-04-30T20:23:14.937Z,44.84
2019-04-30T20:25:42.801Z,44.36
2019-04-30T20:28:12.217Z,44.70
2019-04-30T20:30:40.193Z,45.10
2019-04-30T20:33:09.095Z,44.96
2019-04-30T20:35:36.927Z,44.30
2019-04-30T20:38:26.941Z,44.62
2019-04-30T20:41:00.306Z,44.36
2019-04-30T20:43:24.310Z,43.94
2019-04-30T20:45:52.199Z,44.74
2019-04-30T20:48:20.183Z,43.48
2019-04-30T20:50:47.940Z,44.39
2019-04-30T20:53:15.934Z,44.62
2019-04-30T20:55:43.674Z,44.29
2019-04-30T20:58:11.606Z,43.11
2019-04-30T21:00:39.419Z,44.56
2019-04-30T21:03:07.147Z,45.43
2019-04-30T21:05:35.325Z,43.63
2019-04-30T21:08:11.882Z,45.60
2019-04-30T21:10:39.767Z,43.91
2019-04-30T21:13:10.943Z,46.64
2019-04-30T21:15:36.971Z,45.04
2019-04-30T21:18:04.831Z,45.43
2019-04-30T21:20:32.696Z,44.47
2019-04-30T21:23:00.448Z,45.21
2019-04-30T21:25:29.197Z,45.50
2019-04-30T21:27:57.149Z,46.78
2019-04-30T21:30:24.946Z,47.10
2019-04-30T21:33:10.650Z,44.82
2019-04-30T21:35:52.655Z,45.91
2019-04-30T21:38:20.543Z,46.00
2019-04-30T21:40:49.217Z,43.87
2019-04-30T21:43:17.031Z,45.50
2019-04-30T21:45:44.767Z,45.95
2019-04-30T21:48:12.522Z,44.76
2019-04-30T21:50:40.242Z,45.53
2019-04-30T21:53:09.718Z,47.48
2019-04-30T21:55:39.609Z,44.68
2019-04-30T21:58:06.903Z,47.16
2019-04-30T22:01:05.615Z,47.09
2019-04-30T22:03:33.332Z,47.41
2019-04-30T22:06:01.122Z,46.87
2019-04-30T22:08:28.868Z,46.58
2019-04-30T22:10:58.175Z,45.54
2019-04-30T22:13:26.431Z,46.04
2019-04-30T22:15:54.178Z,47.45
2019-04-30T22:18:21.911Z,45.59
2019-04-30T22:20:49.872Z,48.70
2019-04-30T22:23:17.882Z,46.37
2019-04-30T22:25:45.596Z,46.18
2019-04-30T22:28:13.574Z,46.18
2019-04-30T22:30:41.360Z,45.71
2019-04-30T22:33:10.830Z,48.17
2019-04-30T22:36:03.672Z,45.47
2019-04-30T22:38:35.283Z,45.34
2019-04-30T22:41:03.067Z,46.40
2019-04-30T22:43:30.805Z,45.71
2019-04-30T22:46:03.578Z,45.41
2019-04-30T22:48:31.282Z,45.59
2019-04-30T22:50:59.007Z,47.00
2019-04-30T22:53:26.783Z,46.82
2019-04-30T22:55:55.596Z,46.75
2019-04-30T22:58:25.054Z,45.98
2019-04-30T23:01:18.815Z,46.63
2019-04-30T23:03:46.946Z,49.07
2019-04-30T23:06:14.676Z,46.70
2019-04-30T23:08:42.403Z,47.74
2019-04-30T23:11:10.190Z,45.87
2019-04-30T23:13:37.997Z,46.04
2019-04-30T23:16:05.835Z,46.32
2019-04-30T23:18:33.588Z,45.72
2019-04-30T23:21:01.351Z,47.20
2019-04-30T23:23:29.157Z,45.96
2019-04-30T23:25:56.936Z,46.04
2019-04-30T23:28:26.378Z,45.29
2019-04-30T23:30:54.120Z,45.77
2019-04-30T23:33:21.852Z,47.59
2019-04-30T23:35:49.562Z,45.67
2019-04-30T23:38:17.271Z,46.98
2019-04-30T23:40:46.070Z,46.34
2019-04-30T23:43:13.805Z,46.23
2019-04-30T23:45:41.518Z,45.96
2019-04-30T23:48:09.227Z,47.58
2019-04-30T23:50:36.990Z,44.97
2019-04-30T23:53:04.723Z,45.45
2019-04-30T23:55:32.439Z,46.80
2019-04-30T23:58:00.164Z,45.50
